Historyczne dane pomiarowe

Dodano dane terminowe – wersja testowa.

Dane z okresu 1951-2019

Wersja bazy: 1.34 [2019-03-16, lista zmian], aktualizacja planowana na 2019-04-15

Dane meteo z obszaru Polski uzyskane na podstawie danych udostępnionych przez Instytut Meteorologii i Gospodarki Wodnej – Państwowy Instytut Badawczy.

 

Wybierz Datę:    

       

TemperaturaWilgotnośćWiatrCiśnienieOpadyŚniegCzas trwania zjawisk
 Stacja t tx tn tng RH VA  wxwx mslp ppp RRR   cm mm wxwxwxwxwxwxwx
1961-02-14 6.0 7.3 2.3--- 8.0 0.0---- 0.0------------
1961-02-15 7.6 13.2 -0.2--- 4.7 2.3---- 0.0------------
1961-02-16 6.1 8.9 5.7--- 8.0 3.3---- 0.0------------
1961-02-17 4.5 11.2 1.6--- 3.3 2.0---- 0.0------------
1961-02-18 4.8 12.2 -1.9--- 4.7 2.0---- 0.0------------
1961-02-19 5.1 5.9 1.8--- 8.0 3.3---- 0.0------------
1961-02-20 4.6 6.1 4.1--- 8.0 1.3---- 0.0------------
1961-02-21 2.2 6.7 -0.2--- 6.7 1.3---- 0.0------------
1961-02-22 1.9 8.4 -3.9--- 5.7 1.3---- 0.0------------
1961-02-23 1.7 2.5 -0.4--- 8.0 3.0---- 0.0------------
1961-02-24 2.6 5.3 -0.2--- 4.7 2.7---- 0.0------------
1961-02-25 2.5 6.7 0.4--- 5.3 2.7---- 0.0------------
1961-02-26 4.9 11.8 -1.5--- 6.0 2.7---- 0.0------------
1961-02-27 8.0 12.4 1.4--- 8.0 3.3---- 1.6------------
1961-02-28 7.2 12.5 2.9--- 8.0 5.3---- 0.9------------
1961-03-01 3.6 5.9 2.9- 83.3- 8.0 7.0---- 0.5------------
1961-03-02 3.7 5.6 1.0- 79.5- 8.0 5.0---- 2.2------------
1961-03-03 5.6 7.5 3.3- 90.5- 8.0 2.0---- 6.0------------
1961-03-04 5.6 10.2 2.2- 76.3- 4.7 3.0---- 0.0------------
1961-03-05 4.5 7.1 1.9- 90.0- 7.7 4.0---- 0.0------------
1961-03-06 2.9 5.2 1.1- 95.8- 8.0 2.0---- 0.0------------
1961-03-07 8.0 13.7 0.0- 74.0- 6.0 2.0---- 0.0------------
1961-03-08 5.7 12.4 -2.0- 83.0- 1.3 3.3---- 0.0------------
1961-03-09 8.9 13.7 -0.5- 72.3- 2.3 3.3---- 0.0------------
1961-03-10 7.5 18.5 -1.5- 75.3- 0.0 3.0---- 0.0------------
1961-03-11 8.8 10.8 4.6- 83.3- 5.3 5.0---- 0.0------------
1961-03-12 12.0 15.5 6.4- 84.3- 6.3 10.0---- 0.0------------
1961-03-13 6.1 15.5 5.1- 76.0- 8.0 11.3---- 3.2------------
1961-03-14 9.4 10.5 4.9- 99.3- 8.0 7.0---- 0.9------------
1961-03-15 10.8 13.5 8.8- 89.0- 8.0 8.7---- 0.0------------
163.7 ms

 

Źródłem pochodzenia danych jest Instytut Meteorologii i Gospodarki Wodnej – Państwowy Instytut Badawczy. Dane Instytutu Meteorologii i Gospodarki Wodnej – Państwowego Instytutu Badawczego zostały przetworzone.

Dane źródłowe można odnaleźć na stronie https://dane.imgw.pl